createdAt,value
2019-03-20T00:00:44.765Z,17.90
2019-03-20T00:03:12.152Z,12.87
2019-03-20T00:05:39.475Z,19.03
2019-03-20T00:08:06.960Z,15.80
2019-03-20T00:10:34.348Z,19.77
2019-03-20T00:13:01.669Z,14.43
2019-03-20T00:15:29.050Z,17.07
2019-03-20T00:17:56.375Z,21.40
2019-03-20T00:20:23.761Z,19.97
2019-03-20T00:22:51.149Z,15.93
2019-03-20T00:25:18.547Z,15.93
2019-03-20T00:27:46.153Z,17.03
2019-03-20T00:30:13.677Z,18.77
2019-03-20T00:32:40.965Z,17.97
2019-03-20T00:35:08.334Z,18.37
2019-03-20T00:37:35.918Z,16.53
2019-03-20T00:40:04.686Z,19.97
2019-03-20T00:42:32.326Z,23.80
2019-03-20T00:44:59.896Z,21.47
2019-03-20T00:47:27.219Z,21.20
2019-03-20T00:49:54.876Z,13.47
2019-03-20T00:52:22.203Z,18.47
2019-03-20T00:54:49.619Z,17.30
2019-03-20T00:57:16.932Z,18.27
2019-03-20T00:59:44.245Z,17.33
2019-03-20T01:02:11.911Z,24.70
2019-03-20T01:04:39.490Z,17.40
2019-03-20T01:07:06.957Z,18.83
2019-03-20T01:09:34.248Z,22.97
2019-03-20T01:12:01.547Z,19.53
2019-03-20T01:14:29.131Z,19.27
2019-03-20T01:16:56.509Z,15.40
2019-03-20T01:19:23.947Z,16.80
2019-03-20T01:21:51.621Z,20.40
2019-03-20T01:24:19.275Z,20.90
2019-03-20T01:26:46.478Z,16.63
2019-03-20T01:29:13.785Z,22.03
2019-03-20T01:31:41.131Z,20.67
2019-03-20T01:34:08.568Z,20.60
2019-03-20T01:36:36.189Z,18.13
2019-03-20T01:39:05.893Z,21.03
2019-03-20T01:41:38.087Z,22.27
2019-03-20T01:44:02.466Z,16.63
2019-03-20T01:46:30.382Z,21.27
2019-03-20T01:48:57.919Z,17.77
2019-03-20T01:51:25.459Z,21.23
2019-03-20T01:53:52.749Z,24.67
2019-03-20T01:56:20.055Z,20.73
2019-03-20T01:58:47.480Z,18.50
2019-03-20T02:01:15.107Z,17.93
2019-03-20T02:03:42.425Z,27.63
2019-03-20T02:06:10.086Z,25.27
2019-03-20T02:08:37.651Z,21.57
2019-03-20T02:11:05.219Z,20.17
2019-03-20T02:13:32.772Z,27.70
2019-03-20T02:16:00.473Z,23.73
2019-03-20T02:18:28.042Z,21.90
2019-03-20T02:20:55.596Z,26.80
2019-03-20T02:23:23.150Z,20.07
2019-03-20T02:25:50.482Z,21.10
2019-03-20T02:28:18.279Z,22.83
2019-03-20T02:30:45.574Z,21.10
2019-03-20T02:33:13.187Z,16.77
2019-03-20T02:35:51.329Z,18.97
2019-03-20T02:38:09.913Z,19.33
2019-03-20T02:40:37.210Z,18.57
2019-03-20T02:43:04.519Z,16.63
2019-03-20T02:45:31.952Z,17.13
2019-03-20T02:47:59.328Z,17.67
2019-03-20T02:50:26.730Z,22.50
2019-03-20T02:52:54.149Z,17.27
2019-03-20T02:55:21.803Z,19.27
2019-03-20T02:57:49.661Z,18.17
2019-03-20T03:00:17.002Z,21.13
2019-03-20T03:02:44.484Z,19.37
2019-03-20T03:05:12.132Z,19.57
2019-03-20T03:07:39.543Z,16.97
2019-03-20T03:10:08.188Z,17.73
2019-03-20T03:12:35.490Z,21.40
2019-03-20T03:15:03.663Z,20.80
2019-03-20T03:17:30.983Z,20.43
2019-03-20T03:19:58.375Z,19.63
2019-03-20T03:22:25.791Z,21.80
2019-03-20T03:24:53.212Z,22.07
2019-03-20T03:27:20.770Z,19.47
2019-03-20T03:29:48.085Z,20.10
2019-03-20T03:32:15.504Z,26.10
2019-03-20T03:34:43.507Z,31.60
2019-03-20T03:37:10.900Z,23.53
2019-03-20T03:39:38.592Z,22.90
2019-03-20T03:42:06.246Z,31.30
2019-03-20T03:44:33.546Z,18.70
2019-03-20T03:47:00.921Z,19.57
2019-03-20T03:49:28.337Z,20.70
2019-03-20T03:51:55.744Z,18.27
2019-03-20T03:54:23.281Z,20.50
2019-03-20T03:56:51.295Z,17.60
2019-03-20T03:59:18.847Z,17.57
2019-03-20T04:01:46.262Z,18.00
2019-03-20T04:04:13.929Z,18.40
2019-03-20T04:06:41.509Z,20.73
2019-03-20T04:09:08.818Z,16.43
2019-03-20T04:11:36.133Z,18.93
2019-03-20T04:14:03.757Z,18.47
2019-03-20T04:16:31.136Z,16.50
2019-03-20T04:18:58.541Z,19.23
2019-03-20T04:21:25.938Z,26.20
2019-03-20T04:23:53.785Z,19.97
2019-03-20T04:26:21.515Z,16.73
2019-03-20T04:28:48.904Z,18.43
2019-03-20T04:31:16.530Z,19.20
2019-03-20T04:33:43.919Z,16.70
2019-03-20T04:36:11.233Z,14.80
2019-03-20T04:38:38.626Z,14.10
2019-03-20T04:41:05.901Z,18.57
2019-03-20T04:43:33.216Z,15.20
2019-03-20T04:46:00.694Z,16.90
2019-03-20T04:48:28.072Z,17.07
2019-03-20T04:50:55.463Z,14.87
2019-03-20T04:53:22.836Z,17.47
2019-03-20T04:55:50.665Z,22.50
2019-03-20T04:58:17.986Z,17.50
2019-03-20T05:00:45.858Z,19.13
2019-03-20T05:03:13.179Z,16.30
2019-03-20T05:05:40.874Z,20.00
2019-03-20T05:08:08.332Z,22.63
2019-03-20T05:10:35.711Z,15.77
2019-03-20T05:13:03.049Z,15.00
2019-03-20T05:15:30.725Z,21.43
2019-03-20T05:17:58.140Z,16.97
2019-03-20T05:20:25.484Z,17.73
2019-03-20T05:22:53.053Z,22.63
2019-03-20T05:25:20.331Z,23.33
2019-03-20T05:27:47.771Z,21.10
2019-03-20T05:30:15.415Z,17.27
2019-03-20T05:32:43.024Z,19.00
2019-03-20T05:35:10.421Z,20.10
2019-03-20T05:37:38.042Z,16.67
2019-03-20T05:40:05.688Z,19.20
2019-03-20T05:42:33.051Z,22.30
2019-03-20T05:45:00.397Z,21.07
2019-03-20T05:47:28.028Z,20.40
2019-03-20T05:49:55.411Z,23.93
2019-03-20T05:52:22.788Z,23.17
2019-03-20T05:54:50.119Z,21.93
2019-03-20T05:57:17.786Z,23.23
2019-03-20T05:59:45.184Z,27.30
2019-03-20T06:02:12.762Z,28.07
2019-03-20T06:04:40.690Z,23.50
2019-03-20T06:07:08.087Z,22.60
2019-03-20T06:09:35.728Z,22.40
2019-03-20T06:12:03.128Z,28.50
2019-03-20T06:14:30.699Z,29.10
2019-03-20T06:16:58.337Z,26.17
2019-03-20T06:19:25.656Z,23.47
2019-03-20T06:21:53.239Z,23.67
2019-03-20T06:24:20.655Z,24.60
2019-03-20T06:26:48.075Z,22.27
2019-03-20T06:29:15.991Z,24.77
2019-03-20T06:31:43.308Z,30.07
2019-03-20T06:34:10.909Z,28.90
2019-03-20T06:36:38.308Z,20.67
2019-03-20T06:39:06.931Z,26.80
2019-03-20T06:41:34.338Z,23.33
2019-03-20T06:44:01.983Z,28.87
2019-03-20T06:46:29.369Z,23.87
2019-03-20T06:48:56.664Z,23.73
2019-03-20T06:51:24.233Z,24.27
2019-03-20T06:53:51.537Z,26.33
2019-03-20T06:56:18.936Z,24.60
2019-03-20T06:58:46.321Z,20.93
2019-03-20T07:01:23.922Z,27.93
2019-03-20T07:04:13.136Z,21.93
2019-03-20T07:06:51.355Z,19.30
2019-03-20T07:09:28.916Z,24.30
2019-03-20T07:11:56.225Z,25.00
2019-03-20T07:14:25.369Z,24.30
2019-03-20T07:16:52.756Z,23.57
2019-03-20T07:19:20.067Z,22.77
2019-03-20T07:21:47.506Z,21.07
2019-03-20T07:24:14.902Z,28.33
2019-03-20T07:26:42.468Z,23.97
2019-03-20T07:29:10.050Z,27.10
2019-03-20T07:31:37.591Z,22.30
2019-03-20T07:34:05.169Z,29.73
2019-03-20T07:36:32.578Z,30.47
2019-03-20T07:39:00.240Z,25.90
2019-03-20T07:41:28.091Z,28.50
2019-03-20T07:43:55.497Z,35.63
2019-03-20T07:46:22.860Z,24.27
2019-03-20T07:48:50.453Z,26.50
2019-03-20T07:51:17.830Z,22.10
2019-03-20T07:53:45.179Z,22.33
2019-03-20T07:56:13.030Z,23.90
2019-03-20T07:58:40.429Z,25.77
2019-03-20T08:01:07.824Z,23.33
2019-03-20T08:03:35.196Z,20.90
2019-03-20T08:06:02.889Z,22.90
2019-03-20T08:08:30.534Z,24.87
2019-03-20T08:10:58.027Z,23.90
2019-03-20T08:13:25.634Z,21.97
2019-03-20T08:15:52.934Z,24.67
2019-03-20T08:18:20.233Z,27.33
2019-03-20T08:20:47.882Z,21.10
2019-03-20T08:23:15.330Z,22.97
2019-03-20T08:25:42.636Z,22.47
2019-03-20T08:28:09.938Z,22.90
2019-03-20T08:30:37.326Z,24.47
2019-03-20T08:33:05.206Z,26.60
2019-03-20T08:35:32.771Z,22.60
2019-03-20T08:38:00.124Z,25.80
2019-03-20T08:40:27.502Z,22.23
2019-03-20T08:42:54.880Z,24.43
2019-03-20T08:45:22.453Z,24.90
2019-03-20T08:47:49.812Z,22.57
2019-03-20T08:50:17.881Z,20.63
2019-03-20T08:52:45.492Z,25.23
2019-03-20T08:55:13.060Z,20.20
2019-03-20T08:57:40.659Z,20.37
2019-03-20T09:00:11.483Z,19.10
2019-03-20T09:02:38.768Z,19.73
2019-03-20T09:05:07.524Z,22.90
2019-03-20T09:07:35.188Z,21.40
2019-03-20T09:10:03.177Z,22.37
2019-03-20T09:12:30.764Z,24.50
2019-03-20T09:14:58.352Z,17.60
2019-03-20T09:17:25.923Z,24.87
2019-03-20T09:19:53.368Z,21.13
2019-03-20T09:22:20.716Z,17.43
2019-03-20T09:24:48.361Z,16.03
2019-03-20T09:27:16.076Z,20.50
2019-03-20T09:29:43.783Z,16.70
2019-03-20T09:32:11.090Z,16.20
2019-03-20T09:34:38.446Z,19.63
2019-03-20T09:37:05.855Z,12.97
2019-03-20T09:39:33.180Z,13.03
2019-03-20T09:42:00.495Z,14.40
2019-03-20T09:44:27.898Z,17.37
2019-03-20T09:46:55.225Z,17.67
2019-03-20T09:49:22.661Z,16.80
2019-03-20T09:51:50.083Z,13.23
2019-03-20T09:54:17.533Z,16.67
2019-03-20T09:56:44.852Z,13.00
2019-03-20T09:59:12.160Z,16.53
2019-03-20T10:01:39.576Z,12.17
2019-03-20T10:04:06.898Z,18.33
2019-03-20T10:06:34.784Z,18.57
2019-03-20T10:09:02.204Z,13.33
2019-03-20T10:11:29.625Z,13.03
2019-03-20T10:13:56.911Z,13.80
2019-03-20T10:16:24.475Z,15.03
2019-03-20T10:18:51.901Z,13.03
2019-03-20T10:21:19.837Z,17.77
2019-03-20T10:23:47.226Z,16.53
2019-03-20T10:26:14.578Z,15.07
2019-03-20T10:28:41.966Z,16.50
2019-03-20T10:31:09.977Z,17.30
2019-03-20T10:33:37.409Z,16.43
2019-03-20T10:36:05.112Z,12.67
2019-03-20T10:38:32.386Z,12.60
2019-03-20T10:40:59.722Z,12.77
2019-03-20T10:43:26.993Z,13.97
2019-03-20T10:45:54.285Z,15.63
2019-03-20T10:48:21.683Z,15.27
2019-03-20T10:50:49.050Z,16.60
2019-03-20T10:53:16.359Z,13.20
2019-03-20T10:55:43.762Z,14.43
2019-03-20T10:58:11.149Z,15.10
2019-03-20T11:00:40.798Z,12.37
2019-03-20T11:03:08.284Z,13.40
2019-03-20T11:05:35.677Z,12.97
2019-03-20T11:08:03.150Z,12.13
2019-03-20T11:10:30.546Z,16.13
2019-03-20T11:12:57.990Z,12.00
2019-03-20T11:15:25.816Z,14.07
2019-03-20T11:17:53.233Z,12.57
2019-03-20T11:20:21.333Z,12.97
2019-03-20T11:22:48.916Z,12.87
2019-03-20T11:25:17.325Z,9.97
2019-03-20T11:27:44.673Z,15.83
2019-03-20T11:30:17.899Z,13.40
2019-03-20T11:32:45.339Z,12.67
2019-03-20T11:35:13.284Z,14.27
2019-03-20T11:37:40.755Z,10.40
2019-03-20T11:40:10.871Z,15.77
2019-03-20T11:42:40.743Z,12.83
2019-03-20T11:45:08.762Z,14.00
2019-03-20T11:47:36.082Z,9.40
2019-03-20T11:50:06.673Z,12.07
2019-03-20T11:52:34.303Z,10.17
2019-03-20T11:55:01.887Z,12.30
2019-03-20T11:57:29.543Z,10.77
2019-03-20T11:59:57.154Z,10.87
2019-03-20T12:02:28.386Z,10.33
2019-03-20T12:04:54.504Z,11.83
2019-03-20T12:07:22.361Z,8.90
2019-03-20T12:09:49.644Z,8.70
2019-03-20T12:12:17.475Z,10.17
2019-03-20T12:14:45.330Z,13.60
2019-03-20T12:17:13.272Z,13.40
2019-03-20T12:19:44.836Z,11.07
2019-03-20T12:22:10.039Z,10.53
2019-03-20T12:24:37.437Z,16.70
2019-03-20T12:27:14.561Z,15.03
2019-03-20T12:29:34.260Z,10.53
2019-03-20T12:32:01.607Z,12.13
2019-03-20T12:34:28.985Z,10.17
2019-03-20T12:36:56.735Z,10.67
2019-03-20T12:39:24.238Z,12.33
2019-03-20T12:41:51.871Z,12.43
2019-03-20T12:44:19.173Z,11.20
2019-03-20T12:46:46.862Z,10.17
2019-03-20T12:49:14.520Z,8.67
2019-03-20T12:51:41.811Z,10.57
2019-03-20T12:54:09.165Z,9.97
2019-03-20T12:56:36.822Z,12.17
2019-03-20T12:59:04.487Z,13.73
2019-03-20T13:01:32.067Z,15.90
2019-03-20T13:03:59.426Z,12.93
2019-03-20T13:06:27.011Z,10.50
2019-03-20T13:08:54.685Z,11.83
2019-03-20T13:11:22.025Z,8.70
2019-03-20T13:13:49.666Z,14.20
2019-03-20T13:16:16.953Z,13.87
2019-03-20T13:18:44.333Z,9.50
2019-03-20T13:21:11.724Z,11.37
2019-03-20T13:23:39.272Z,12.87
2019-03-20T13:26:06.888Z,10.07
2019-03-20T13:28:34.547Z,8.50
2019-03-20T13:31:06.273Z,8.60
2019-03-20T13:33:33.753Z,9.67
2019-03-20T13:36:01.238Z,13.40
2019-03-20T13:38:28.657Z,7.65
2019-03-20T13:40:55.991Z,12.97
2019-03-20T13:43:23.416Z,10.23
2019-03-20T13:45:50.788Z,7.17
2019-03-20T13:48:18.113Z,11.13
2019-03-20T13:50:45.397Z,8.30
2019-03-20T13:53:14.999Z,8.73
2019-03-20T13:55:42.277Z,9.10
2019-03-20T13:58:10.178Z,8.50
2019-03-20T14:00:37.582Z,7.13
2019-03-20T14:03:04.875Z,6.90
2019-03-20T14:05:32.275Z,8.17
2019-03-20T14:07:59.670Z,10.87
2019-03-20T14:10:26.995Z,10.57
2019-03-20T14:12:54.337Z,9.83
2019-03-20T14:15:21.956Z,8.10
2019-03-20T14:17:49.629Z,10.43
2019-03-20T14:20:19.095Z,12.13
2019-03-20T14:22:46.521Z,9.03
2019-03-20T14:25:13.928Z,14.37
2019-03-20T14:27:41.636Z,7.77
2019-03-20T14:30:14.493Z,9.50
2019-03-20T14:32:41.884Z,8.53
2019-03-20T14:35:09.461Z,6.50
2019-03-20T14:37:37.377Z,7.47
2019-03-20T14:40:04.888Z,9.97
2019-03-20T14:42:32.467Z,7.57
2019-03-20T14:44:59.778Z,11.23
2019-03-20T14:47:27.069Z,10.07
2019-03-20T14:49:54.507Z,12.30
2019-03-20T14:52:21.909Z,8.33
2019-03-20T14:54:49.200Z,7.70
2019-03-20T14:57:16.519Z,8.97
2019-03-20T14:59:44.062Z,7.27
2019-03-20T15:02:11.754Z,13.77
2019-03-20T15:04:39.139Z,7.33
2019-03-20T15:07:06.457Z,7.60
2019-03-20T15:09:33.749Z,7.90
2019-03-20T15:12:01.087Z,12.27
2019-03-20T15:14:28.466Z,14.67
2019-03-20T15:16:55.904Z,10.67
2019-03-20T15:19:23.286Z,7.97
2019-03-20T15:21:51.379Z,12.90
2019-03-20T15:24:19.060Z,7.90
2019-03-20T15:26:46.431Z,8.53
2019-03-20T15:29:13.839Z,7.37
2019-03-20T15:31:41.264Z,8.90
2019-03-20T15:34:08.899Z,11.07
2019-03-20T15:36:36.508Z,14.20
2019-03-20T15:39:06.021Z,13.13
2019-03-20T15:41:33.453Z,10.00
2019-03-20T15:44:02.641Z,12.10
2019-03-20T15:46:30.179Z,12.33
2019-03-20T15:48:57.624Z,8.53
2019-03-20T15:51:25.240Z,9.87
2019-03-20T15:53:52.910Z,9.57
2019-03-20T15:56:20.354Z,9.17
2019-03-20T15:58:47.994Z,8.60
2019-03-20T16:01:15.366Z,10.27
2019-03-20T16:03:42.996Z,12.53
2019-03-20T16:06:10.298Z,13.83
2019-03-20T16:08:37.836Z,13.07
2019-03-20T16:11:06.757Z,14.97
2019-03-20T16:13:34.429Z,13.17
2019-03-20T16:16:01.715Z,13.33
2019-03-20T16:18:29.053Z,12.63
2019-03-20T16:20:56.737Z,7.67
2019-03-20T16:23:24.670Z,12.13
2019-03-20T16:25:52.032Z,12.03
2019-03-20T16:28:19.327Z,11.00
2019-03-20T16:30:46.909Z,14.23
2019-03-20T16:33:14.372Z,10.30
2019-03-20T16:35:41.778Z,17.10
2019-03-20T16:38:09.400Z,9.43
2019-03-20T16:40:36.832Z,13.23
2019-03-20T16:43:04.384Z,10.30
2019-03-20T16:45:32.358Z,12.77
2019-03-20T16:47:59.785Z,7.00
2019-03-20T16:50:28.061Z,12.00
2019-03-20T16:52:55.477Z,12.37
2019-03-20T16:55:22.799Z,13.50
2019-03-20T16:57:50.266Z,10.70
2019-03-20T17:00:19.690Z,12.07
2019-03-20T17:02:47.097Z,11.37
2019-03-20T17:05:14.713Z,11.50
2019-03-20T17:07:42.112Z,10.67
2019-03-20T17:10:15.499Z,11.30
2019-03-20T17:12:42.925Z,13.63
2019-03-20T17:15:13.660Z,15.37
2019-03-20T17:17:40.972Z,11.00
2019-03-20T17:20:09.075Z,14.27
2019-03-20T17:22:41.937Z,14.50
2019-03-20T17:25:06.315Z,13.77
2019-03-20T17:27:34.007Z,17.23
2019-03-20T17:30:01.408Z,17.67
2019-03-20T17:32:28.732Z,19.43
2019-03-20T17:34:56.325Z,21.70
2019-03-20T17:37:23.937Z,17.13
2019-03-20T17:39:51.346Z,21.40
2019-03-20T17:42:18.769Z,20.07
2019-03-20T17:44:46.147Z,19.60
2019-03-20T17:47:13.893Z,17.30
2019-03-20T17:49:41.543Z,21.30
2019-03-20T17:52:09.039Z,15.80
2019-03-20T17:54:36.710Z,20.30
2019-03-20T17:57:04.044Z,22.13
2019-03-20T17:59:31.486Z,22.27
2019-03-20T18:01:58.823Z,29.17
2019-03-20T18:04:26.119Z,24.20
2019-03-20T18:06:53.590Z,19.63
2019-03-20T18:09:21.254Z,18.93
2019-03-20T18:11:48.548Z,21.50
2019-03-20T18:14:16.134Z,21.63
2019-03-20T18:16:43.517Z,20.07
2019-03-20T18:19:10.933Z,24.37
2019-03-20T18:21:38.331Z,22.73
2019-03-20T18:24:06.030Z,28.63
2019-03-20T18:26:33.705Z,26.50
2019-03-20T18:29:01.092Z,22.10
2019-03-20T18:31:28.789Z,24.40
2019-03-20T18:33:56.368Z,24.13
2019-03-20T18:36:23.694Z,25.10
2019-03-20T18:38:51.032Z,26.37
2019-03-20T18:41:18.387Z,25.23
2019-03-20T18:43:45.722Z,24.13
2019-03-20T18:46:13.125Z,28.07
2019-03-20T18:48:40.655Z,20.30
2019-03-20T18:51:08.096Z,22.97
2019-03-20T18:53:35.563Z,23.57
2019-03-20T18:56:03.294Z,22.20
2019-03-20T18:58:30.699Z,31.40
2019-03-20T19:00:58.026Z,23.77
2019-03-20T19:03:25.821Z,23.53
2019-03-20T19:05:59.528Z,23.77
2019-03-20T19:08:27.013Z,24.27
2019-03-20T19:10:54.787Z,22.53
2019-03-20T19:13:24.375Z,23.23
2019-03-20T19:15:51.772Z,30.57
2019-03-20T19:18:19.742Z,25.97
2019-03-20T19:20:47.062Z,24.67
2019-03-20T19:23:14.611Z,28.10
2019-03-20T19:25:42.335Z,22.27
2019-03-20T19:28:10.221Z,26.00
2019-03-20T19:30:37.675Z,20.60
2019-03-20T19:33:05.037Z,26.03
2019-03-20T19:35:32.729Z,23.70
2019-03-20T19:38:00.183Z,27.77
2019-03-20T19:40:27.574Z,27.50
2019-03-20T19:42:54.994Z,26.27
2019-03-20T19:45:22.394Z,38.67
2019-03-20T19:47:49.706Z,24.50
2019-03-20T19:50:17.125Z,25.60
2019-03-20T19:52:44.803Z,33.93
2019-03-20T19:55:12.289Z,30.40
2019-03-20T19:57:39.695Z,28.23
2019-03-20T20:00:09.652Z,35.10
2019-03-20T20:02:37.345Z,27.10
2019-03-20T20:05:15.737Z,27.03
2019-03-20T20:07:37.127Z,27.70
2019-03-20T20:10:05.180Z,30.97
2019-03-20T20:12:32.618Z,22.70
2019-03-20T20:15:00.319Z,25.47
2019-03-20T20:17:28.010Z,34.50
2019-03-20T20:19:55.497Z,26.07
2019-03-20T20:22:23.659Z,24.60
2019-03-20T20:24:51.062Z,21.17
2019-03-20T20:27:18.743Z,33.90
2019-03-20T20:29:46.137Z,37.63
2019-03-20T20:32:13.838Z,29.17
2019-03-20T20:34:41.196Z,25.57
2019-03-20T20:37:08.624Z,28.23
2019-03-20T20:39:36.030Z,26.70
2019-03-20T20:42:03.635Z,23.93
2019-03-20T20:44:30.934Z,26.77
2019-03-20T20:46:58.225Z,30.60
2019-03-20T20:49:32.238Z,27.57
2019-03-20T20:51:59.758Z,26.27
2019-03-20T20:54:27.131Z,28.57
2019-03-20T20:56:54.802Z,28.83
2019-03-20T20:59:22.224Z,30.43
2019-03-20T21:01:49.674Z,31.17
2019-03-20T21:04:16.960Z,31.33
2019-03-20T21:06:44.420Z,28.00
2019-03-20T21:09:11.701Z,26.43
2019-03-20T21:11:46.940Z,25.13
2019-03-20T21:14:14.083Z,26.53
2019-03-20T21:16:44.072Z,28.27
2019-03-20T21:19:39.316Z,27.30
2019-03-20T21:23:01.132Z,34.17
2019-03-20T21:25:29.291Z,33.17
2019-03-20T21:28:53.368Z,36.60
2019-03-20T21:31:31.185Z,34.30
2019-03-20T21:35:04.460Z,27.67
2019-03-20T21:38:06.576Z,29.20
2019-03-20T21:41:00.558Z,27.57
2019-03-20T21:43:55.370Z,29.07
2019-03-20T21:46:54.852Z,35.50
2019-03-20T21:49:22.784Z,36.67
2019-03-20T21:51:51.035Z,32.37
2019-03-20T21:55:03.288Z,29.13
2019-03-20T21:58:08.231Z,28.80
2019-03-20T22:01:13.430Z,32.07
2019-03-20T22:03:43.764Z,30.10
2019-03-20T22:07:05.375Z,30.70
2019-03-20T22:10:13.331Z,31.70
2019-03-20T22:12:56.516Z,26.53
2019-03-20T22:15:45.701Z,36.33
2019-03-20T22:18:30.030Z,32.70
2019-03-20T22:21:10.602Z,31.07
2019-03-20T22:24:15.377Z,29.30
2019-03-20T22:27:25.401Z,34.27
2019-03-20T22:29:53.345Z,31.60
2019-03-20T22:33:11.062Z,31.63
2019-03-20T22:36:00.378Z,33.17
2019-03-20T22:39:24.040Z,34.47
2019-03-20T22:42:17.795Z,30.17
2019-03-20T22:45:16.868Z,36.00
2019-03-20T22:48:16.473Z,32.93
2019-03-20T22:51:14.028Z,29.63
2019-03-20T22:54:07.754Z,33.10
2019-03-20T22:57:00.971Z,32.17
2019-03-20T22:59:29.290Z,33.90
2019-03-20T23:02:04.845Z,31.60
2019-03-20T23:04:35.716Z,30.87
2019-03-20T23:07:03.542Z,34.60
2019-03-20T23:09:31.784Z,34.73
2019-03-20T23:12:01.821Z,34.00
2019-03-20T23:14:29.966Z,35.23
2019-03-20T23:16:57.905Z,38.27
2019-03-20T23:19:25.988Z,27.87
2019-03-20T23:21:53.805Z,32.23
2019-03-20T23:24:21.756Z,33.20
2019-03-20T23:26:49.940Z,33.50
2019-03-20T23:29:18.359Z,35.83
2019-03-20T23:31:46.292Z,36.90
2019-03-20T23:34:14.117Z,29.60
2019-03-20T23:36:42.595Z,35.87
2019-03-20T23:39:10.564Z,31.03
2019-03-20T23:41:38.510Z,29.67
2019-03-20T23:44:06.424Z,34.13
2019-03-20T23:46:34.573Z,32.87
2019-03-20T23:49:06.396Z,33.97
2019-03-20T23:51:34.386Z,32.70
2019-03-20T23:54:02.215Z,34.37
2019-03-20T23:56:31.615Z,34.13
2019-03-20T23:58:59.510Z,32.77
